createdAt,value
2017-11-14T19:30:39.781Z,25.97
2017-11-14T19:33:08.465Z,25.95
2017-11-14T19:35:40.038Z,27.98
2017-11-14T19:38:07.694Z,28.15
2017-11-14T19:40:35.671Z,26.15
2017-11-14T19:43:04.416Z,27.30
2017-11-14T19:45:32.053Z,27.05
2017-11-14T19:48:00.935Z,28.00
2017-11-14T19:50:29.954Z,30.33
2017-11-14T19:52:57.632Z,28.67
2017-11-14T19:55:25.260Z,27.92
2017-11-14T19:57:53.068Z,31.90
2017-11-14T20:00:20.712Z,28.25
2017-11-14T20:02:48.353Z,28.90
2017-11-14T20:05:16.046Z,31.00
2017-11-14T20:07:45.263Z,28.85
2017-11-14T20:10:12.876Z,26.58
2017-11-14T20:12:41.891Z,26.83
2017-11-14T20:15:10.026Z,24.42
2017-11-14T20:17:37.718Z,26.45
2017-11-14T20:20:06.386Z,27.05
2017-11-14T20:22:35.311Z,25.92
2017-11-14T20:25:04.832Z,26.87
2017-11-14T20:27:32.663Z,26.70
2017-11-14T20:30:00.973Z,26.52
2017-11-14T20:32:29.803Z,26.50
2017-11-14T20:35:00.856Z,24.73
2017-11-14T20:37:29.064Z,24.65
2017-11-14T20:39:58.391Z,24.25
2017-11-14T20:42:27.293Z,25.07
2017-11-14T20:44:57.475Z,25.80
2017-11-14T20:47:26.672Z,23.83
2017-11-14T20:49:56.946Z,25.25
2017-11-14T20:52:27.234Z,27.60
2017-11-14T20:54:55.871Z,25.40
2017-11-14T20:57:25.027Z,26.85
2017-11-14T20:59:53.034Z,21.70
2017-11-14T21:02:22.967Z,25.20
2017-11-14T21:04:51.956Z,25.85
2017-11-14T21:07:20.275Z,25.37
2017-11-14T21:09:49.485Z,27.15
2017-11-14T21:12:21.280Z,27.60
2017-11-14T21:14:51.313Z,25.48
2017-11-14T21:17:20.277Z,23.80
2017-11-14T21:19:51.987Z,25.23
2017-11-14T21:22:20.445Z,24.90
2017-11-14T21:24:52.395Z,25.75
2017-11-14T21:27:21.405Z,24.10
2017-11-14T21:29:49.805Z,26.00
2017-11-14T21:32:18.677Z,26.23
2017-11-14T21:34:47.513Z,23.42
2017-11-14T21:37:15.535Z,28.17
2017-11-14T21:39:47.568Z,27.77
2017-11-14T21:42:15.326Z,23.17
2017-11-14T21:44:45.876Z,27.13
2017-11-14T21:47:14.266Z,26.55
2017-11-14T21:49:42.736Z,26.92
2017-11-14T21:52:10.682Z,27.20
2017-11-14T21:54:39.991Z,26.25
2017-11-14T21:57:07.646Z,26.52
2017-11-14T21:59:35.503Z,23.12
2017-11-14T22:02:03.254Z,27.60
2017-11-14T22:04:33.247Z,29.83
2017-11-14T22:07:00.963Z,27.98
2017-11-14T22:09:29.368Z,28.67
2017-11-14T22:11:57.751Z,28.00
2017-11-14T22:14:27.697Z,29.30
2017-11-14T22:16:55.365Z,29.02
2017-11-14T22:19:23.009Z,27.15
2017-11-14T22:21:50.659Z,25.93
2017-11-14T22:24:18.354Z,27.45
2017-11-14T22:26:47.740Z,29.20
2017-11-14T22:29:15.738Z,28.90
2017-11-14T22:31:43.371Z,28.30
2017-11-14T22:34:11.029Z,27.65
2017-11-14T22:36:38.667Z,27.90
2017-11-14T22:39:06.378Z,27.90
2017-11-14T22:41:34.119Z,29.10
2017-11-14T22:44:01.799Z,27.95
2017-11-14T22:46:30.346Z,30.08
2017-11-14T22:48:58.980Z,30.25
2017-11-14T22:51:28.342Z,30.80
2017-11-14T22:53:58.817Z,30.30
2017-11-14T22:56:28.671Z,31.12
2017-11-14T22:58:58.579Z,32.97
2017-11-14T23:01:28.863Z,30.00
2017-11-14T23:03:58.662Z,25.02
2017-11-14T23:06:29.046Z,26.52
2017-11-14T23:08:58.787Z,22.45
2017-11-14T23:11:28.999Z,25.12
2017-11-14T23:13:58.678Z,23.27
2017-11-14T23:16:29.027Z,24.73
2017-11-14T23:18:56.700Z,25.42
2017-11-14T23:21:24.339Z,27.87
2017-11-14T23:23:52.000Z,26.85
2017-11-14T23:26:19.666Z,27.27
2017-11-14T23:28:47.308Z,27.65
2017-11-14T23:31:15.173Z,28.00
2017-11-14T23:33:43.144Z,29.92
2017-11-14T23:36:10.822Z,27.90
2017-11-14T23:38:38.447Z,27.60
2017-11-14T23:41:06.071Z,28.48
2017-11-14T23:43:35.270Z,30.87
2017-11-14T23:46:03.146Z,29.90
2017-11-14T23:48:30.794Z,28.58
2017-11-14T23:50:59.186Z,29.33
2017-11-14T23:53:26.849Z,30.95
2017-11-14T23:55:54.468Z,30.23
2017-11-14T23:58:22.305Z,31.37
